My Meet Scores
Ari Kiger, Aerial Gymnastics Club - MyMeetScores.com
Top100 | Top Teams | Upcoming Meets | Completed Meets | Latest | Add Scores | Help| Support | Bookmark and Share

Ari Kiger, Aerial Gymnastics Club
Personal Bests
LevelVault BarsBeamFloorAA
39.2008.925 8.9508.75035.525
48.3759.200 9.4758.90035.550
69.1258.850 9.4009.25035.875
XP9.1508.600 8.4009.22535.375
AllLevels7.6006.850 8.6507.80030.900
Meet Scores
Date Meet Team Session Level Division Vault Bars Beam Floor AA
2019-12-06 Ultimate Wish Classic Aerial Gymnastics Club 4 XP JR 9.150 6T 8.600 8T 8.400 10 9.225 8 35.375 10
2019-03-15 Illinois State Championship Level 6,9,10 Aerial Gymnastics Club 8 6 Sr C 8.850 13 8.500 19 8.575 18 9.250 13T 35.175 17
2019-02-15 Women's Midwest Open Aerial Gymnastics Club 01 6 Senior A 9.125 4 8.850 5 8.800 7T 9.100 8T 35.875 5
2019-01-19 2019 Hang 10.0 Invitational Aerial Gymnastics Club 1 6 12 Yr Olds 8.250 12T 7.950 8T 9.200 2T 8.850 11T 34.250 7
2019-01-11 St Jude Benefit Meet Aerial Gymnastics Club 2B 6 Sr A 8.550 6T 8.100 12 8.650 9 9.225 9 34.525 10
2018-12-14 Hawaiian Pineapple Classic Aerial Gymnastics Club 1A 6 Age12 8.750 3 7.650 15 8.800 11 8.950 13T 34.150 13
2018-11-30 Ultimate Wish Classic Aerial Gymnastics Club 12 6 JR 8.100 16 8.200 14T 7.850 16 8.750 16 32.900 17
2018-03-16 2018 Illinois Level 6, 9, 10 State Championships Aerial Gymnastics Club 10 6 Jr B 8.700 19 8.475 16 9.400 6T 9.250 20 35.825 17
2018-02-17 Women's Midwest Open Aerial Gymnastics Club 09 6 JR B 8.600 11T 8.300 15 9.400 1 8.650 11 34.950 10
2018-02-09 IGI Chicago Style Gymnastics Meet Aerial Gymnastics Club 43 6 132 State L6 B 8.450 17 8.200 18 8.850 12 8.900 20 34.400 18
2018-01-26 King Arthur Invitational Aerial Gymnastics Club 1 6 JR 8.700 8T 8.800 6T 9.225 5T 9.050 15 35.775 7
2018-01-12 St Jude Benefit Meet Aerial Gymnastics Club 5C 6 SrA 8.700 9T 8.550 6 9.250 1 9.000 9T 35.500 6
2017-12-15 2017 Aspire Classic Aerial Gymnastics Club 1 6 Sr A 8.950 11T 8.350 15 8.500 14T 8.400 18 34.200 15
2017-12-01 Ultimate Wish Classic Aerial Gymnastics Club 7 6 SR 8.500 19 8.250 16 9.100 8T 9.000 19T 34.850 15
2017-03-10 2017 Illinois Level 4 State Championships American Institute of Gymnastics 5 4 Jr C 8.075 29 8.650 17 8.700 21T 8.875 17 34.300 18
2017-02-24 Kinetic Classic American Institute of Gymnastics 5,6 4 All Ages 8.200 105T 8.825 66T 9.475 10T 8.750 83T 35.250 74T
2017-02-10 IGI Chicago Style Gymnastics Meet American Institute of Gymnastics 632L 4 JrC 8.100 23 8.875 13 8.425 19 8.275 23 33.675 20
2017-01-27 2017 UGA Invitational American Institute of Gymnastics C10 4 Senior 8.375 15 9.125 7 9.150 9T 8.900 15T 35.550 12
2017-01-13 St Jude Benefit Meet American Institute of Gymnastics 5A 4 Sr A 7.700 18 9.200 4T 9.325 5 8.725 8T 34.950 7
2017-01-05 Leenda's Island Adventure American Institute of Gymnastics P10 4 10 Year Ol 8.000 12T 8.750 11T 9.375 3 7.700 17 33.825 14
2016-12-09 St. Nick Invite American Institute of Gymnastics 6 4 Senior 7.900 27T 8.825 11 8.150 28 8.500 18T 33.375 23
2016-03-10 2016 Illinois Level 4 State Meet American Institute of Gymnastics All 4 Youth-C 8.300 26 7.725 30 8.800 19 8.500 22 33.325 27
2016-02-19 Midwest Open Womens 2016 American Institute of Gymnastics 7A 4 9 7.650 17 8.000 17 9.075 10 8.200 16 32.925 17
2016-02-05 St. Valentines Classic American Institute of Gymnastics 3A AllLevels All Ages 7.600 77T 6.850 67 8.650 35T 7.800 53 30.900 63
2016-01-08 St Jude Benefit Meet American Institute of Gymnastics 5A 4 Jr B 7.750 20 7.550 19 7.650 20 7.900 20 30.850 20
2015-12-11 St. Nick Invite American Institute of Gymnastics 7B 4 Youth 7.400 15 6.200 16 7.000 16 8.250 9T 28.850 16
2015-03-12 2015 Illinois Level 3 State Championship American Institute of Gymnastics All 3 Youth-F 9.175 15 8.675 16 8.950 10 8.700 19 35.500 17
2015-02-27 Elk Grove Gymnastics Invite American Institute of Gymnastics 1 3 6-8yrs 9.200 13 8.925 12 8.900 8T 8.500 18T 35.525 12
2015-02-13 IGI Chicago Style Gymnastics Meet American Institute of Gymnastics 221 3 8 & younge 9.200 8T 8.225 11 8.750 5T 8.750 12T 34.925 10
Get your scores on
a t-shirt, pin, or hoodie

Order by December 13

www.lazysuits.com